Condiciones actuales en los principales Aeropuertos de España-Datos Metar

 

LEAL - Alicante
Actualización: 27/01/2021 17:00
Despejado
Despejado
 Viento del ONO
Viento: ONO 31 km/h
Temperatura: 24°C
Rocío: 11°C
Humedad: 44%
Barómetro: 1021 hPa
Resumen: Despejado
Visibilidad: greater than 10 km
2021/01/27 16:00 LEAL 271600Z 30017KT CAVOK 24/11 Q1021 NOSIG
LEAB - Albacete
Actualización: 27/01/2021 17:00
Partly Cloudy
Partly Cloudy
 Viento del ONO
Viento: ONO 28 km/h
Temperatura: 15°C
Rocío: 10°C
Humedad: 72%
Barómetro: 1025 hPa
Nubosidad: Partly Cloudy
Visibilidad: 10 km
Cloud details: Partly Cloudy 1067 m
2021/01/27 16:00 LEAB 271600Z 29015KT 9999 SCT035 15/10 Q1025 NOSIG
LEAM - Almería
Actualización: 27/01/2021 17:00
Despejado
Despejado
 Viento del SO
Viento: SO 7 km/h
Temperatura: 17°C
Rocío: 14°C
Humedad: 83%
Barómetro: 1023 hPa
Resumen: Despejado
Visibilidad: greater than 10 km
2021/01/27 16:00 LEAM 271600Z 23004KT CAVOK 17/14 Q1023
 
LEAS - Asturias/Aviles
Actualización: 27/01/2021 17:00
Few Clouds
Few Clouds
 Viento del NO
Viento: NO 11 km/h
Temperatura: 17°C
Rocío: 13°C
Humedad: 77%
Barómetro: 1022 hPa
Nubosidad: Few Clouds
Visibilidad: 10 km
Cloud details: Few Clouds 1585 m
2021/01/27 16:00 LEAS 271600Z 32006KT 280V360 9999 FEW052 17/13 Q1022 NOSIG
LEBZ - Badajoz/Talavera la Real
Actualización: 27/01/2021 17:00
Mostly Cloudy
Mostly Cloudy
 Viento del varies
Viento: varies 2 km/h
Temperatura: 17°C
Rocío: 13°C
Humedad: 77%
Barómetro: 1027 hPa
Nubosidad: Mostly Cloudy
Visibilidad: 10 km
Cloud details: Mostly Cloudy 488 m
2021/01/27 16:00 LEBZ 271600Z VRB01KT 9999 BKN016 17/13 Q1027
LEBL - Barcelona
Actualización: 27/01/2021 17:00
Few Clouds
Few Clouds
 Viento del E
Viento: E 7 km/h
Temperatura: 14°C
Rocío: 7°C
Humedad: 63%
Barómetro: 1020 hPa
Nubosidad: Few Clouds
Visibilidad: 10 km
Cloud details: Few Clouds 1219 m
2021/01/27 16:00 LEBL 271600Z 10004KT 070V130 9999 FEW040 14/07 Q1020 NOSIG
 
LEBB - Bilbao
Actualización: 27/01/2021 17:00
Mostly Cloudy
Mostly Cloudy
 Viento del varies
Viento: varies 2 km/h
Temperatura: 17°C
Rocío: 15°C
Humedad: 88%
Barómetro: 1024 hPa
Nubosidad: Mostly Cloudy
Visibilidad: 10 km
Cloud details: Few Clouds 853 m
Mostly Cloudy 1097 m
2021/01/27 16:00 LEBB 271600Z VRB01KT 9999 FEW028 BKN036 17/15 Q1024 NOSIG
LEBG - Burgos/Villafría
Actualización: 27/01/2021 17:00
Partly Cloudy
Partly Cloudy
 Viento del SSO
Viento: SSO 17 km/h
Temperatura: 13°C
Rocío: 10°C
Humedad: 82%
Barómetro: 1026 hPa
Nubosidad: Partly Cloudy
Visibilidad: 10 km
Cloud details: Partly Cloudy 457 m
2021/01/27 16:00 LEBG 271600Z 21009KT 9999 SCT015 13/10 Q1026
LEBA - Córdoba
Actualización: 27/01/2021 17:00
Mostly Cloudy
Mostly Cloudy
 Viento del E
Viento: E 7 km/h
Temperatura: 19°C
Rocío: 14°C
Humedad: 73%
Barómetro: 1025 hPa
Nubosidad: Mostly Cloudy
Visibilidad: 10 km
Cloud details: Few Clouds 762 m
Mostly Cloudy 914 m
2021/01/27 16:00 LEBA 271600Z 10004KT 9999 FEW025 BKN030 19/14 Q1025
 
LEGE - Gerona
Actualización: 27/01/2021 17:00
Few Clouds
Few Clouds
 Viento del calm
Viento: Calma
Temperatura: 15°C
Rocío: 6°C
Humedad: 55%
Barómetro: 1019 hPa
Nubosidad: Few Clouds
Visibilidad: 10 km
Cloud details: Few Clouds 1524 m
2021/01/27 16:00 LEGE 271600Z 00000KT 9999 FEW050 15/06 Q1019
LEGR - Granada
Actualización: 27/01/2021 17:00
Few Clouds
Few Clouds
 Viento del ONO
Viento: ONO 13 km/h
Temperatura: 20°C
Rocío: 14°C
Humedad: 69%
Barómetro: 1025 hPa
Nubosidad: Few Clouds
Visibilidad: 10 km
Cloud details: Few Clouds 610 m
2021/01/27 16:00 LEGR 271600Z 29007KT 250V320 9999 FEW020 20/14 Q1025
GCHI - Hierro
Actualización: 27/01/2021 17:00
Few Clouds
Few Clouds
 Viento del N
Viento: N 26 km/h
Temperatura: 20°C
Rocío: 15°C
Humedad: 73%
Barómetro: 1021 hPa
Nubosidad: Few Clouds
Visibilidad: 10 km
Cloud details: Few Clouds 671 m
2021/01/27 16:00 GCHI 271600Z 36014KT 9999 FEW022 20/15 Q1021
 
LEIB - Ibiza
Actualización: 27/01/2021 17:00
Despejado
Despejado
 Viento del SSO
Viento: SSO 17 km/h
Temperatura: 17°C
Rocío: 13°C
Humedad: 77%
Barómetro: 1021 hPa
Resumen: Despejado
Visibilidad: greater than 10 km
2021/01/27 16:00 LEIB 271600Z 21009KT CAVOK 17/13 Q1021 NOSIG
LEJR - Jerez de la Frontera
Actualización: 27/01/2021 17:00
Partly Cloudy
Partly Cloudy
 Viento del N
Viento: N 19 km/h
Temperatura: 20°C
Rocío: 16°C
Humedad: 78%
Barómetro: 1025 hPa
Nubosidad: Partly Cloudy
Visibilidad: 10 km
Cloud details: Partly Cloudy 549 m
2021/01/27 16:00 LEJR 271600Z 01010KT 9999 SCT018 20/16 Q1025
LECO - A Coruña
Actualización: 27/01/2021 17:00
Mostly Cloudy
Mostly Cloudy
 Viento del SSO
Viento: SSO 9 km/h
Temperatura: 16°C
Rocío: 14°C
Humedad: 88%
Barómetro: 1024 hPa
Nubosidad: Mostly Cloudy
Visibilidad: 10 km
Cloud details: Few Clouds 366 m
Mostly Cloudy 671 m
2021/01/27 16:00 LECO 271600Z 20005KT 170V250 9999 FEW012 BKN022 16/14 Q1024 NOSIG
 
GCLA - La Palma
Actualización: 27/01/2021 17:00
Mostly Cloudy
Mostly Cloudy
 Viento del NNE
Viento: NNE 13 km/h
Temperatura: 21°C
Rocío: 16°C
Humedad: 73%
Barómetro: 1021 hPa
Nubosidad: Mostly Cloudy
Visibilidad: 10 km
Cloud details: Mostly Cloudy 640 m
2021/01/27 16:00 GCLA 271600Z 03007KT 360V070 9999 BKN021 21/16 Q1021
GCRR - Lanzarote
Actualización: 27/01/2021 17:00
Few Clouds
Few Clouds
 Viento del E
Viento: E 17 km/h
Temperatura: 20°C
Rocío: 18°C
Humedad: 88%
Barómetro: 1021 hPa
Nubosidad: Few Clouds
Visibilidad: 10 km
Cloud details: Few Clouds 610 m
2021/01/27 16:00 GCRR 271600Z 09009KT 9999 FEW020 20/18 Q1021
GCLP - Las Palmas
Actualización: 27/01/2021 17:00
Despejado
Despejado
 Viento del NE
Viento: NE 19 km/h
Temperatura: 21°C
Rocío: 17°C
Humedad: 78%
Barómetro: 1020 hPa
Resumen: Despejado
Visibilidad: greater than 10 km
2021/01/27 16:00 GCLP 271600Z 04010KT CAVOK 21/17 Q1020 NOSIG
 
LELN - León
Actualización: 27/01/2021 17:00
Few Clouds
Few Clouds
 Viento del O
Viento: O 20 km/h
Temperatura: 16°C
Rocío: 10°C
Humedad: 68%
Barómetro: 1025 hPa
Nubosidad: Few Clouds
Visibilidad: 10 km
Cloud details: Few Clouds 914 m
2021/01/27 16:00 LELN 271600Z 26011KT 230V290 9999 FEW030 16/10 Q1025
LELO - Logroño
Actualización: 27/01/2021 17:00
Few Clouds
Few Clouds
 Viento del O
Viento: O 15 km/h
Temperatura: 19°C
Rocío: 12°C
Humedad: 64%
Barómetro: 1023 hPa
Nubosidad: Few Clouds
Visibilidad: 10 km
Cloud details: Few Clouds 975 m
2021/01/27 16:00 LELO 271600Z 27008KT 9999 FEW032 19/12 Q1023
LECV - Madrid/Colmenar
Actualización: 27/01/2021 17:00
Few Clouds
Few Clouds
 Viento del SSE
Viento: SSE 6 km/h
Temperatura: 15°C
Rocío: 10°C
Humedad: 72%
Barómetro: 1026 hPa
Nubosidad: Few Clouds
Visibilidad: 10 km
Cloud details: Few Clouds 914 m
2021/01/27 16:00 LECV 271600Z 15003KT 120V190 9999 FEW030 15/10 Q1026
 
LEMD - Madrid/Barajas
Actualización: 27/01/2021 17:00
Despejado
Despejado
 Viento del varies
Viento: varies 2 km/h
Temperatura: 18°C
Rocío: 11°C
Humedad: 64%
Barómetro: 1025 hPa
Resumen: Despejado
Visibilidad: greater than 10 km
2021/01/27 16:00 LEMD 271600Z VRB01KT CAVOK 18/11 Q1025 NOSIG
LEVS - Madrid/Cuatro Vientos
Actualización: 27/01/2021 17:00
Few Clouds
Few Clouds
 Viento del OSO
Viento: OSO 15 km/h
Temperatura: 17°C
Rocío: 12°C
Humedad: 73%
Barómetro: 1026 hPa
Nubosidad: Few Clouds
Visibilidad: 10 km
Cloud details: Few Clouds 1219 m
2021/01/27 16:00 LEVS 271600Z 25008KT 9999 FEW040 17/12 Q1026
LEGT - Madrid/Getafe
Actualización: 27/01/2021 17:00
Few Clouds
Few Clouds
 Viento del OSO
Viento: OSO 7 km/h
Temperatura: 18°C
Rocío: 12°C
Humedad: 68%
Barómetro: 1026 hPa
Nubosidad: Few Clouds
Visibilidad: 10 km
Cloud details: Few Clouds 1219 m
2021/01/27 16:00 LEGT 271600Z 24004KT 9999 FEW040 18/12 Q1026
 
LETO - Madrid/Torrejón
Actualización: 27/01/2021 17:00
Despejado
Despejado
 Viento del calm
Viento: Calma
Temperatura: 18°C
Rocío: 11°C
Humedad: 64%
Barómetro: 1026 hPa
Resumen: Despejado
Visibilidad: greater than 10 km
2021/01/27 16:00 LETO 271600Z 00000KT CAVOK 18/11 Q1026 NOSIG
LEMG - Málaga
Actualización: 27/01/2021 17:00
Few Clouds
Few Clouds
 Viento del O
Viento: O 26 km/h
Temperatura: 23°C
Rocío: 15°C
Humedad: 61%
Barómetro: 1022 hPa
Nubosidad: Few Clouds
Visibilidad: 10 km
Cloud details: Few Clouds 975 m
2021/01/27 16:00 LEMG 271600Z 27014KT 9999 FEW032 23/15 Q1022 NOSIG
GEML - Melilla
Actualización: 27/01/2021 17:00
Despejado
Despejado
 Viento del ONO
Viento: ONO 17 km/h
Temperatura: 20°C
Rocío: 14°C
Humedad: 69%
Barómetro: 1024 hPa
Resumen: Despejado
Visibilidad: greater than 10 km
2021/01/27 16:00 GEML 271600Z 30009KT 270V330 CAVOK 20/14 Q1024
 
LEMH - Mahón
Actualización: 27/01/2021 17:00
Despejado
Despejado
 Viento del varies
Viento: varies 4 km/h
Temperatura: 17°C
Rocío: 11°C
Humedad: 68%
Barómetro: 1020 hPa
Resumen: Despejado
Visibilidad: greater than 10 km
2021/01/27 16:00 LEMH 271600Z VRB02KT CAVOK 17/11 Q1020
LEMO - Morón de La Frontera
Actualización: 27/01/2021 16:30
Few Clouds
Few Clouds
 Viento del NNE
Viento: NNE 13 km/h
Temperatura: 19°C
Rocío: 18°C
Humedad: 94%
Barómetro: 1025 hPa
Nubosidad: Few Clouds
Visibilidad: 10 km
Cloud details: Few Clouds 762 m
2021/01/27 15:30 LEMO 271530Z 03007KT 010V070 9999 FEW025 19/18 Q1025 NOSIG
LEMI - Murcia/Corvera
Actualización: 27/01/2021 17:00
Few Clouds
Few Clouds
 Viento del N
Viento: N 24 km/h
Temperatura: 22°C
Rocío: 11°C
Humedad: 50%
Barómetro: 1023 hPa
Nubosidad: Few Clouds
Visibilidad: 10 km
Cloud details: Few Clouds 1372 m
2021/01/27 16:00 LEMI 271600Z 35013KT 9999 FEW045 22/11 Q1023
 
LERI - Murcia/Alcantarilla
Actualización: 27/01/2021 17:00
Few Clouds
Few Clouds
 Viento del NNO
Viento: NNO 20 km/h
Temperatura: 23°C
Rocío: 11°C
Humedad: 47%
Barómetro: 1022 hPa
Nubosidad: Few Clouds
Visibilidad: 10 km
Cloud details: Few Clouds 1585 m
2021/01/27 16:00 LERI 271600Z 34011KT 300V020 9999 FEW052 23/11 Q1022 NOSIG
LELC - Murcia/San Javier
Actualización: 27/01/2021 17:00
Few Clouds
Few Clouds
 Viento del NO
Viento: NO 17 km/h
Temperatura: 24°C
Rocío: 11°C
Humedad: 44%
Barómetro: 1022 hPa
Nubosidad: Few Clouds
Visibilidad: 10 km
Cloud details: Few Clouds 1524 m
2021/01/27 16:00 LELC 271600Z 31009KT 280V340 9999 FEW050 24/11 Q1022 NOSIG
LEPA - Palma de Mallorca
Actualización: 27/01/2021 17:00
Few Clouds
Few Clouds
 Viento del NO
Viento: NO 26 km/h
Temperatura: 19°C
Rocío: 12°C
Humedad: 64%
Barómetro: 1019 hPa
Nubosidad: Few Clouds
Visibilidad: 10 km
Cloud details: Few Clouds 1219 m
2021/01/27 16:00 LEPA 271600Z 32014KT 290V350 9999 FEW040 19/12 Q1019 NOSIG
 
LEPP - Pamplona
Actualización: 27/01/2021 17:00
Mostly Cloudy
Mostly Cloudy
 Viento del NNO
Viento: NNO 15 km/h
Temperatura: 13°C
Rocío: 12°C
Humedad: 94%
Barómetro: 1024 hPa
Nubosidad: Mostly Cloudy
Visibilidad: 10 km
Cloud details: Few Clouds 305 m
Partly Cloudy 549 m
Mostly Cloudy 762 m
2021/01/27 16:00 LEPP 271600Z 34008KT 9999 FEW010 SCT018 BKN025 13/12 Q1024
LERS - Reus
Actualización: 27/01/2021 17:00
Few Clouds
Few Clouds
 Viento del E
Viento: E 6 km/h
Temperatura: 17°C
Rocío: 11°C
Humedad: 68%
Barómetro: 1018 hPa
Nubosidad: Few Clouds
Visibilidad: 10 km
Cloud details: Few Clouds 1219 m
2021/01/27 16:00 LERS 271600Z 10003KT 030V150 9999 FEW040 17/11 Q1018
LERT - Rota
Actualización: 27/01/2021 17:00
Few Clouds
Few Clouds
 Viento del NNE
Viento: NNE 15 km/h
Temperatura: 20°C
Rocío: 16°C
Humedad: 78%
Barómetro: 1025 hPa
Nubosidad: Few Clouds
Visibilidad: 10 km
Cloud details: Few Clouds 610 m
2021/01/27 16:00 LERT 271600Z 02008KT 360V060 9999 FEW020 20/16 Q1025 NOSIG
 
LELL - Sabadell
Actualización: 27/01/2021 17:00
Despejado
Despejado
 Viento del SE
Viento: SE 7 km/h
Temperatura: 15°C
Rocío: 7°C
Humedad: 59%
Barómetro: 1019 hPa
Resumen: Despejado
Visibilidad: greater than 10 km
2021/01/27 16:00 LELL 271600Z 13004KT 080V160 CAVOK 15/07 Q1019
LESA - Salamanca
Actualización: 27/01/2021 17:00
Few Clouds
Few Clouds
 Viento del ONO
Viento: ONO 13 km/h
Temperatura: 16°C
Rocío: 11°C
Humedad: 72%
Barómetro: 1027 hPa
Nubosidad: Few Clouds
Visibilidad: 10 km
Cloud details: Few Clouds 457 m
2021/01/27 16:00 LESA 271600Z 29007KT 260V320 9999 FEW015 16/11 Q1027
LESO - San Sebastián
Actualización: 27/01/2021 17:00
Mostly Cloudy
Mostly Cloudy
 Viento del OSO
Viento: OSO 15 km/h, Racha: 33 km/h
Temperatura: 16°C
Rocío: 13°C
Humedad: 83%
Barómetro: 1023 hPa
Nubosidad: Mostly Cloudy
Visibilidad: 10 km
Cloud details: Partly Cloudy 701 m
Mostly Cloudy 1219 m
2021/01/27 16:00 LESO 271600Z 25008G18KT 170V320 9999 SCT023 BKN040 16/13 Q1023
 
LEXJ - Santander
Actualización: 27/01/2021 17:00
Mostly Cloudy
Mostly Cloudy
 Viento del ONO
Viento: ONO 13 km/h
Temperatura: 18°C
Rocío: 15°C
Humedad: 83%
Barómetro: 1024 hPa
Nubosidad: Mostly Cloudy
Visibilidad: 10 km
Cloud details: Few Clouds 762 m
Mostly Cloudy 1280 m
2021/01/27 16:00 LEXJ 271600Z 29007KT 9999 FEW025 BKN042 18/15 Q1024
LEPA - Palma de Mallorca
Actualización: 27/01/2021 17:00
Few Clouds
Few Clouds
 Viento del NO
Viento: NO 26 km/h
Temperatura: 19°C
Rocío: 12°C
Humedad: 64%
Barómetro: 1019 hPa
Nubosidad: Few Clouds
Visibilidad: 10 km
Cloud details: Few Clouds 1219 m
2021/01/27 16:00 LEPA 271600Z 32014KT 290V350 9999 FEW040 19/12 Q1019 NOSIG
LEPP - Pamplona
Actualización: 27/01/2021 17:00
Mostly Cloudy
Mostly Cloudy
 Viento del NNO
Viento: NNO 15 km/h
Temperatura: 13°C
Rocío: 12°C
Humedad: 94%
Barómetro: 1024 hPa
Nubosidad: Mostly Cloudy
Visibilidad: 10 km
Cloud details: Few Clouds 305 m
Partly Cloudy 549 m
Mostly Cloudy 762 m
2021/01/27 16:00 LEPP 271600Z 34008KT 9999 FEW010 SCT018 BKN025 13/12 Q1024
 
LEST - Santiago de Compostela
Actualización: 27/01/2021 17:00
Light drizzle, Patches of, Niebla, Cubierto
Light drizzle, Patches of, Niebla, Cubierto
 Viento del SO
Viento: SO 17 km/h
Temperatura: 13°C
Rocío: 12°C
Humedad: 94%
Barómetro: 1025 hPa
Resumen: Light drizzle, Patches of, Niebla
Nubosidad: Cubierto
Visibilidad: 8 km
Cloud details: Cubierto 91 m
2021/01/27 16:00 LEST 271600Z 22009KT 170V270 8000 3000SE -DZ BCFG OVC003 13/12 Q1025 TEMPO 1500 BR BKN002
LEZL - Sevilla
Actualización: 27/01/2021 17:00
Few Clouds
Few Clouds
 Viento del NE
Viento: NE 9 km/h
Temperatura: 20°C
Rocío: 15°C
Humedad: 73%
Barómetro: 1025 hPa
Nubosidad: Few Clouds
Visibilidad: 10 km
Cloud details: Few Clouds 762 m
2021/01/27 16:00 LEZL 271600Z 04005KT 010V080 9999 FEW025 20/15 Q1025 NOSIG
GCXO - Tenerife
Actualización: 27/01/2021 17:00
Despejado
Despejado
 Viento del E
Viento: E 7 km/h
Temperatura: 21°C
Rocío: 15°C
Humedad: 69%
Barómetro: 1022 hPa
Resumen: Despejado
Visibilidad: greater than 10 km
2021/01/27 16:00 GCXO 271600Z 09004KT 050V130 CAVOK 21/15 Q1022 NOSIG
 
GCTS - Tenerife-Sur
Actualización: 27/01/2021 17:00
Despejado
Despejado
 Viento del ESE
Viento: ESE 13 km/h
Temperatura: 22°C
Rocío: 17°C
Humedad: 73%
Barómetro: 1020 hPa
Resumen: Despejado
Visibilidad: greater than 10 km
2021/01/27 16:00 GCTS 271600Z 12007KT 080V150 CAVOK 22/17 Q1020 NOSIG
LEVC - Valencia
Actualización: 27/01/2021 17:00
Few Clouds
Few Clouds
 Viento del ONO
Viento: ONO 11 km/h
Temperatura: 24°C
Rocío: 11°C
Humedad: 44%
Barómetro: 1020 hPa
Nubosidad: Few Clouds
Visibilidad: 10 km
Cloud details: Few Clouds 1524 m
2021/01/27 16:00 LEVC 271600Z 29006KT 9999 FEW050 24/11 Q1020 NOSIG
LEVD - Valladolid
Actualización: 27/01/2021 17:00
Mostly Cloudy
Mostly Cloudy
 Viento del OSO
Viento: OSO 17 km/h
Temperatura: 14°C
Rocío: 11°C
Humedad: 82%
Barómetro: 1026 hPa
Nubosidad: Mostly Cloudy
Visibilidad: 10 km
Cloud details: Mostly Cloudy 305 m
2021/01/27 16:00 LEVD 271600Z 25009KT 9999 BKN010 14/11 Q1026
 
LEVX - Vigo
Actualización: 27/01/2021 17:00
Mostly Cloudy
Mostly Cloudy
 Viento del S
Viento: S 13 km/h
Temperatura: 14°C
Rocío: 14°C
Humedad: 100%
Barómetro: 1026 hPa
Nubosidad: Mostly Cloudy
Visibilidad: 8 km
Cloud details: Mostly Cloudy 183 m
Mostly Cloudy 335 m
Mostly Cloudy 671 m
2021/01/27 16:00 LEVX 271600Z 19007KT 140V220 8000 BKN006 BKN011 BKN022 14/14 Q1026 TEMPO 3000 BR
LEVT - Vitoria
Actualización: 27/01/2021 17:00
Mostly Cloudy
Mostly Cloudy
 Viento del ENE
Viento: ENE 7 km/h
Temperatura: 15°C
Rocío: 13°C
Humedad: 88%
Barómetro: 1024 hPa
Nubosidad: Mostly Cloudy
Visibilidad: 10 km
Cloud details: Few Clouds 427 m
Partly Cloudy 610 m
Mostly Cloudy 1067 m
2021/01/27 16:00 LEVT 271600Z 06004KT 030V100 9999 FEW014 SCT020 BKN035 15/13 Q1024
LEZG - Zaragoza
Actualización: 27/01/2021 17:00
Few Clouds
Few Clouds
 Viento del ONO
Viento: ONO 30 km/h
Temperatura: 19°C
Rocío: 12°C
Humedad: 64%
Barómetro: 1022 hPa
Nubosidad: Few Clouds
Visibilidad: 10 km
Cloud details: Few Clouds 1219 m
2021/01/27 16:00 LEZG 271600Z 30016KT 9999 FEW040 19/12 Q1022

La estación de MeteoMurcia.com, publica sus datos en los siguientes proyectos:

Weather Underground PWS IMURCIAP2 Meteoclimatic www.awekas.at

W3Counter
Web Analytics